createdAt,value
2023-02-17T00:00:26.583Z,48.9
2023-02-17T00:01:28.005Z,48.9
2023-02-17T00:02:29.460Z,49
2023-02-17T00:03:30.961Z,49
2023-02-17T00:04:32.377Z,49
2023-02-17T00:05:33.787Z,48.9
2023-02-17T00:06:35.216Z,48.9
2023-02-17T00:07:36.597Z,49
2023-02-17T00:08:37.988Z,48.9
2023-02-17T00:09:39.422Z,48.8
2023-02-17T00:10:40.834Z,48.9
2023-02-17T00:11:42.273Z,48.7
2023-02-17T00:12:43.702Z,48.8
2023-02-17T00:13:45.121Z,48.7
2023-02-17T00:14:46.523Z,48.6
2023-02-17T00:15:48.177Z,48.6
2023-02-17T00:16:49.563Z,48.6
2023-02-17T00:17:51.045Z,48.5
2023-02-17T00:18:52.447Z,48.5
2023-02-17T00:19:53.868Z,48.5
2023-02-17T00:20:55.257Z,48.4
2023-02-17T00:21:56.684Z,48.4
2023-02-17T00:22:58.085Z,48.4
2023-02-17T00:23:59.512Z,48.4
2023-02-17T00:25:00.910Z,48.5
2023-02-17T00:26:02.297Z,48.3
2023-02-17T00:27:03.698Z,48.3
2023-02-17T00:28:05.129Z,48.2
2023-02-17T00:29:06.550Z,48.4
2023-02-17T00:30:08.082Z,48.2
2023-02-17T00:31:09.872Z,48.2
2023-02-17T00:32:11.852Z,48
2023-02-17T00:33:13.363Z,48
2023-02-17T00:34:14.752Z,48
2023-02-17T00:35:16.188Z,48
2023-02-17T00:36:17.595Z,47.9
2023-02-17T00:37:19.044Z,48
2023-02-17T00:38:20.459Z,47.7
2023-02-17T00:39:21.854Z,47.9
2023-02-17T00:40:23.271Z,47.6
2023-02-17T00:41:24.834Z,47.8
2023-02-17T00:42:26.236Z,48.1
2023-02-17T00:43:27.666Z,48.3
2023-02-17T00:44:29.075Z,48.1
2023-02-17T00:45:30.477Z,48.1
2023-02-17T00:46:31.962Z,47.9
2023-02-17T00:47:33.356Z,48
2023-02-17T00:48:34.854Z,48.1
2023-02-17T00:49:36.275Z,47.8
2023-02-17T00:50:37.669Z,47.9
2023-02-17T00:51:39.084Z,47.9
2023-02-17T00:52:40.466Z,48
2023-02-17T00:53:41.882Z,47.9
2023-02-17T00:54:43.286Z,47.7
2023-02-17T00:55:44.782Z,47.6
2023-02-17T00:56:46.206Z,47.7
2023-02-17T00:57:47.598Z,47.7
2023-02-17T00:58:49.020Z,47.6
2023-02-17T00:59:50.446Z,47.7
2023-02-17T01:00:51.860Z,47.7
2023-02-17T01:01:53.436Z,47.6
2023-02-17T01:02:54.938Z,47.7
2023-02-17T01:03:56.351Z,47.6
2023-02-17T01:04:57.815Z,47.4
2023-02-17T01:05:59.349Z,47.3
2023-02-17T01:07:00.766Z,47.4
2023-02-17T01:08:02.155Z,47.3
2023-02-17T01:09:03.542Z,47.2
2023-02-17T01:10:04.916Z,47.1
2023-02-17T01:11:06.321Z,47.1
2023-02-17T01:12:07.738Z,47
2023-02-17T01:13:09.148Z,47
2023-02-17T01:14:10.573Z,46.9
2023-02-17T01:15:11.987Z,47.2
2023-02-17T01:16:13.650Z,47.3
2023-02-17T01:17:15.295Z,47
2023-02-17T01:18:16.691Z,47.3
2023-02-17T01:19:18.111Z,47.1
2023-02-17T01:20:19.526Z,47
2023-02-17T01:21:20.905Z,47
2023-02-17T01:22:22.327Z,46.9
2023-02-17T01:23:23.698Z,47.2
2023-02-17T01:24:25.107Z,47
2023-02-17T01:25:26.726Z,46.9
2023-02-17T01:26:28.362Z,46.8
2023-02-17T01:27:29.760Z,46.7
2023-02-17T01:28:31.148Z,46.8
2023-02-17T01:29:32.523Z,46.8
2023-02-17T01:30:33.896Z,46.8
2023-02-17T01:31:35.570Z,46.8
2023-02-17T01:32:37.151Z,47
2023-02-17T01:33:38.661Z,46.7
2023-02-17T01:34:40.066Z,46.5
2023-02-17T01:35:41.464Z,46.5
2023-02-17T01:36:42.850Z,46.5
2023-02-17T01:37:44.244Z,46.5
2023-02-17T01:38:45.626Z,46.4
2023-02-17T01:39:47.032Z,46.2
2023-02-17T01:40:48.450Z,46.5
2023-02-17T01:41:49.855Z,46.4
2023-02-17T01:42:51.257Z,46.4
2023-02-17T01:43:52.684Z,46.4
2023-02-17T01:44:54.078Z,46.1
2023-02-17T01:45:55.475Z,46.3
2023-02-17T01:46:57.172Z,46.1
2023-02-17T01:47:58.781Z,46
2023-02-17T01:49:00.194Z,46
2023-02-17T01:50:01.598Z,46
2023-02-17T01:51:03.003Z,46
2023-02-17T01:52:04.417Z,45.9
2023-02-17T01:53:05.839Z,45.8
2023-02-17T01:54:07.274Z,45.9
2023-02-17T01:55:08.698Z,46
2023-02-17T01:56:10.109Z,45.9
2023-02-17T01:57:11.514Z,45.7
2023-02-17T01:58:12.938Z,45.9
2023-02-17T01:59:14.352Z,45.7
2023-02-17T02:00:15.776Z,45.7
2023-02-17T02:01:17.200Z,45.6
2023-02-17T02:02:18.991Z,45.6
2023-02-17T02:03:20.581Z,45.7
2023-02-17T02:04:21.963Z,45.7
2023-02-17T02:05:23.340Z,45.5
2023-02-17T02:06:24.751Z,45.6
2023-02-17T02:07:26.142Z,45.5
2023-02-17T02:08:27.707Z,45.6
2023-02-17T02:09:29.102Z,45.6
2023-02-17T02:10:30.531Z,45.6
2023-02-17T02:11:31.950Z,45.9
2023-02-17T02:12:33.391Z,45.7
2023-02-17T02:13:34.803Z,45.4
2023-02-17T02:14:36.223Z,45.5
2023-02-17T02:15:37.634Z,45.1
2023-02-17T02:16:39.125Z,45.3
2023-02-17T02:17:40.607Z,45.4
2023-02-17T02:18:42.054Z,45.2
2023-02-17T02:19:43.426Z,45.2
2023-02-17T02:20:44.832Z,45.4
2023-02-17T02:21:46.255Z,45.4
2023-02-17T02:22:47.667Z,45.3
2023-02-17T02:23:49.091Z,45.3
2023-02-17T02:24:50.506Z,45.3
2023-02-17T02:25:51.970Z,45.4
2023-02-17T02:26:53.374Z,45.6
2023-02-17T02:27:54.780Z,45.4
2023-02-17T02:28:56.184Z,45.2
2023-02-17T02:29:57.681Z,45
2023-02-17T02:30:59.240Z,44.8
2023-02-17T02:32:00.836Z,44.8
2023-02-17T02:33:02.326Z,45
2023-02-17T02:34:03.756Z,44.9
2023-02-17T02:35:05.167Z,44.9
2023-02-17T02:36:07.373Z,44.8
2023-02-17T02:37:08.901Z,44.6
2023-02-17T02:38:10.309Z,44.8
2023-02-17T02:39:11.700Z,44.8
2023-02-17T02:40:13.090Z,44.7
2023-02-17T02:41:14.491Z,44.9
2023-02-17T02:42:15.895Z,44.8
2023-02-17T02:43:17.326Z,44.9
2023-02-17T02:44:18.712Z,44.7
2023-02-17T02:45:20.087Z,44.6
2023-02-17T02:46:21.483Z,44.6
2023-02-17T02:47:22.906Z,44.6
2023-02-17T02:48:24.288Z,44.7
2023-02-17T02:49:25.914Z,44.5
2023-02-17T02:50:27.506Z,44.7
2023-02-17T02:51:28.921Z,44.6
2023-02-17T02:52:30.343Z,44.7
2023-02-17T02:53:31.780Z,44.8
2023-02-17T02:54:33.384Z,44.6
2023-02-17T02:55:34.758Z,44.5
2023-02-17T02:56:36.150Z,44.6
2023-02-17T02:57:37.809Z,44.5
2023-02-17T02:58:39.486Z,44.3
2023-02-17T02:59:40.902Z,44.2
2023-02-17T03:00:42.628Z,44.1
2023-02-17T03:01:44.063Z,44.5
2023-02-17T03:02:45.453Z,44.3
2023-02-17T03:03:46.941Z,44.3
2023-02-17T03:04:48.502Z,44.3
2023-02-17T03:05:49.936Z,44.2
2023-02-17T03:06:51.362Z,44.2
2023-02-17T03:07:52.764Z,44.2
2023-02-17T03:08:54.150Z,44.1
2023-02-17T03:09:55.563Z,44.2
2023-02-17T03:10:56.956Z,44.2
2023-02-17T03:11:58.384Z,44
2023-02-17T03:12:59.787Z,44
2023-02-17T03:14:01.167Z,44
2023-02-17T03:15:02.582Z,43.9
2023-02-17T03:16:04.862Z,44
2023-02-17T03:17:06.411Z,44
2023-02-17T03:18:07.834Z,44.3
2023-02-17T03:19:09.219Z,44.1
2023-02-17T03:20:10.666Z,44
2023-02-17T03:21:12.067Z,44
2023-02-17T03:22:13.466Z,44
2023-02-17T03:23:14.865Z,43.9
2023-02-17T03:24:16.256Z,43.7
2023-02-17T03:25:17.694Z,43.7
2023-02-17T03:26:19.111Z,43.9
2023-02-17T03:27:20.529Z,43.7
2023-02-17T03:28:21.946Z,43.7
2023-02-17T03:29:23.371Z,43.7
2023-02-17T03:30:24.959Z,43.6
2023-02-17T03:31:28.004Z,43.7
2023-02-17T03:32:30.478Z,43.7
2023-02-17T03:33:31.873Z,43.5
2023-02-17T03:34:33.276Z,43.6
2023-02-17T03:35:34.735Z,43.8
2023-02-17T03:36:36.145Z,43.5
2023-02-17T03:37:37.557Z,43.4
2023-02-17T03:38:38.982Z,43.3
2023-02-17T03:39:40.387Z,43.5
2023-02-17T03:40:41.794Z,43.4
2023-02-17T03:41:43.196Z,43.4
2023-02-17T03:42:44.608Z,43.4
2023-02-17T03:43:46.043Z,43.3
2023-02-17T03:44:47.465Z,43.3
2023-02-17T03:45:48.891Z,43.2
2023-02-17T03:46:50.305Z,43.1
2023-02-17T03:47:51.702Z,43.3
2023-02-17T03:48:53.093Z,43.1
2023-02-17T03:49:54.486Z,43.2
2023-02-17T03:50:55.926Z,43.1
2023-02-17T03:51:57.316Z,43.1
2023-02-17T03:52:58.698Z,43.2
2023-02-17T03:54:00.127Z,43
2023-02-17T03:55:01.544Z,43
2023-02-17T03:56:03.171Z,43
2023-02-17T03:57:04.759Z,42.9
2023-02-17T03:58:06.186Z,43
2023-02-17T03:59:07.621Z,43
2023-02-17T04:00:09.043Z,43
2023-02-17T04:01:10.516Z,43.1
2023-02-17T04:02:11.956Z,43
2023-02-17T04:03:13.477Z,43
2023-02-17T04:04:15.072Z,42.9
2023-02-17T04:05:16.573Z,43
2023-02-17T04:06:18.046Z,42.9
2023-02-17T04:07:19.555Z,42.9
2023-02-17T04:08:20.994Z,42.9
2023-02-17T04:09:22.389Z,42.9
2023-02-17T04:10:23.796Z,43
2023-02-17T04:11:25.194Z,43
2023-02-17T04:12:26.619Z,42.9
2023-02-17T04:13:28.049Z,42.8
2023-02-17T04:14:29.429Z,43.1
2023-02-17T04:15:30.897Z,43
2023-02-17T04:16:32.315Z,42.7
2023-02-17T04:17:33.730Z,42.8
2023-02-17T04:18:35.151Z,42.7
2023-02-17T04:19:36.544Z,42.7
2023-02-17T04:20:37.933Z,42.8
2023-02-17T04:21:39.370Z,42.8
2023-02-17T04:22:40.779Z,42.8
2023-02-17T04:23:42.201Z,42.8
2023-02-17T04:24:43.604Z,42.8
2023-02-17T04:25:44.995Z,42.7
2023-02-17T04:26:46.397Z,42.6
2023-02-17T04:27:47.803Z,42.8
2023-02-17T04:28:49.205Z,42.8
2023-02-17T04:29:50.697Z,42.8
2023-02-17T04:30:52.348Z,42.9
2023-02-17T04:31:54.109Z,42.7
2023-02-17T04:32:55.590Z,42.6
2023-02-17T04:33:56.982Z,42.6
2023-02-17T04:34:58.387Z,42.5
2023-02-17T04:36:00.000Z,42.7
2023-02-17T04:37:01.432Z,42.7
2023-02-17T04:38:03.861Z,42.8
2023-02-17T04:39:05.332Z,42.7
2023-02-17T04:40:06.779Z,42.7
2023-02-17T04:41:08.179Z,42.7
2023-02-17T04:42:09.615Z,42.8
2023-02-17T04:43:11.023Z,42.7
2023-02-17T04:44:12.406Z,42.6
2023-02-17T04:45:13.842Z,42.6
2023-02-17T04:46:15.294Z,42.4
2023-02-17T04:47:16.712Z,42.5
2023-02-17T04:48:18.088Z,42.8
2023-02-17T04:49:19.463Z,42.9
2023-02-17T04:50:21.406Z,42.6
2023-02-17T04:51:22.801Z,42.5
2023-02-17T04:52:24.251Z,42.6
2023-02-17T04:53:25.667Z,42.7
2023-02-17T04:54:27.060Z,42.9
2023-02-17T04:55:28.466Z,42.5
2023-02-17T04:56:29.889Z,42.8
2023-02-17T04:57:31.292Z,43.4
2023-02-17T04:58:32.687Z,43.2
2023-02-17T04:59:34.080Z,43.5
2023-02-17T05:00:35.506Z,43.7
2023-02-17T05:01:36.945Z,43.6
2023-02-17T05:02:38.357Z,43.6
2023-02-17T05:03:39.769Z,43.7
2023-02-17T05:04:41.208Z,43.8
2023-02-17T05:05:42.614Z,43.4
2023-02-17T05:06:44.019Z,43.4
2023-02-17T05:07:45.468Z,43.6
2023-02-17T05:08:46.858Z,43.4
2023-02-17T05:09:48.274Z,43.1
2023-02-17T05:10:49.704Z,43.3
2023-02-17T05:11:51.100Z,43.5
2023-02-17T05:12:52.516Z,43.5
2023-02-17T05:13:53.918Z,42.9
2023-02-17T05:14:55.361Z,43.3
2023-02-17T05:15:56.873Z,43.5
2023-02-17T05:16:58.320Z,43.2
2023-02-17T05:17:59.715Z,43.4
2023-02-17T05:19:01.119Z,43.1
2023-02-17T05:20:02.518Z,43.3
2023-02-17T05:21:03.941Z,42.8
2023-02-17T05:22:05.348Z,43
2023-02-17T05:23:06.809Z,43
2023-02-17T05:24:08.204Z,42.7
2023-02-17T05:25:09.601Z,43
2023-02-17T05:26:11.092Z,42.9
2023-02-17T05:27:12.562Z,42.9
2023-02-17T05:28:13.964Z,42.7
2023-02-17T05:29:15.347Z,42.6
2023-02-17T05:30:16.861Z,42.5
2023-02-17T05:31:18.500Z,42.7
2023-02-17T05:32:20.069Z,42.7
2023-02-17T05:33:21.477Z,42.6
2023-02-17T05:34:22.880Z,42.5
2023-02-17T05:35:24.290Z,42.3
2023-02-17T05:36:25.684Z,42.2
2023-02-17T05:37:27.080Z,42.2
2023-02-17T05:38:28.570Z,42.2
2023-02-17T05:39:29.959Z,42.3
2023-02-17T05:40:31.364Z,42.3
2023-02-17T05:41:32.766Z,42.1
2023-02-17T05:42:34.168Z,42.5
2023-02-17T05:43:35.602Z,42.4
2023-02-17T05:44:37.007Z,42.2
2023-02-17T05:45:38.413Z,42.4
2023-02-17T05:46:40.204Z,42.2
2023-02-17T05:47:41.651Z,42
2023-02-17T05:48:43.045Z,42.1
2023-02-17T05:49:44.469Z,42
2023-02-17T05:50:45.854Z,42
2023-02-17T05:51:47.239Z,41.8
2023-02-17T05:52:48.631Z,41.9
2023-02-17T05:53:50.100Z,41.8
2023-02-17T05:54:51.498Z,41.7
2023-02-17T05:55:52.905Z,41.5
2023-02-17T05:56:54.309Z,41.4
2023-02-17T05:57:55.693Z,41.6
2023-02-17T05:58:57.078Z,41.7
2023-02-17T05:59:58.492Z,41.8
2023-02-17T06:00:59.897Z,41.5
2023-02-17T06:02:01.289Z,41.7
2023-02-17T06:03:02.707Z,41.7
2023-02-17T06:04:04.138Z,41.4
2023-02-17T06:05:05.692Z,41.3
2023-02-17T06:06:08.016Z,41.3
2023-02-17T06:07:09.553Z,41.2
2023-02-17T06:08:10.974Z,41.1
2023-02-17T06:09:12.501Z,41
2023-02-17T06:10:13.894Z,41
2023-02-17T06:11:15.301Z,40.9
2023-02-17T06:12:16.749Z,40.8
2023-02-17T06:13:18.146Z,40.9
2023-02-17T06:14:19.552Z,40.8
2023-02-17T06:15:20.933Z,40.7
2023-02-17T06:16:22.412Z,40.7
2023-02-17T06:17:23.841Z,40.7
2023-02-17T06:18:25.293Z,40.7
2023-02-17T06:19:26.700Z,40.6
2023-02-17T06:20:28.102Z,40.6
2023-02-17T06:21:29.512Z,40.7
2023-02-17T06:22:30.902Z,40.6
2023-02-17T06:23:32.297Z,40.5
2023-02-17T06:24:33.762Z,40.4
2023-02-17T06:25:35.173Z,40.5
2023-02-17T06:26:36.607Z,40.4
2023-02-17T06:27:38.015Z,40.5
2023-02-17T06:28:39.704Z,40.4
2023-02-17T06:29:41.375Z,40.4
2023-02-17T06:30:42.838Z,40.4
2023-02-17T06:31:44.567Z,40.4
2023-02-17T06:32:46.105Z,40.3
2023-02-17T06:33:47.512Z,40.2
2023-02-17T06:34:48.936Z,40.4
2023-02-17T06:35:50.338Z,40.3
2023-02-17T06:36:51.743Z,40.2
2023-02-17T06:37:53.358Z,40.1
2023-02-17T06:38:54.834Z,40
2023-02-17T06:39:56.272Z,40
2023-02-17T06:40:57.678Z,40
2023-02-17T06:41:59.073Z,39.9
2023-02-17T06:43:00.454Z,39.8
2023-02-17T06:44:01.863Z,40.1
2023-02-17T06:45:03.289Z,39.9
2023-02-17T06:46:05.661Z,39.8
2023-02-17T06:47:07.302Z,39.7
2023-02-17T06:48:08.734Z,39.7
2023-02-17T06:49:10.147Z,39.8
2023-02-17T06:50:11.594Z,39.6
2023-02-17T06:51:13.036Z,39.6
2023-02-17T06:52:14.440Z,39.5
2023-02-17T06:53:15.845Z,39.7
2023-02-17T06:54:17.267Z,39.2
2023-02-17T06:55:18.770Z,39.3
2023-02-17T06:56:21.488Z,39.5
2023-02-17T06:57:22.888Z,39.2
2023-02-17T06:58:24.303Z,39.4
2023-02-17T06:59:25.725Z,39.2
2023-02-17T07:00:27.185Z,39.3
2023-02-17T07:01:28.601Z,39.3
2023-02-17T07:02:30.319Z,39.1
2023-02-17T07:03:31.769Z,39.1
2023-02-17T07:04:33.216Z,39.2
2023-02-17T07:05:34.663Z,39
2023-02-17T07:06:36.098Z,39.1
2023-02-17T07:07:37.516Z,39
2023-02-17T07:08:41.836Z,38.9
2023-02-17T07:09:43.343Z,38.9
2023-02-17T07:10:44.890Z,38.9
2023-02-17T07:11:46.378Z,39.1
2023-02-17T07:12:47.805Z,39.1
2023-02-17T07:13:49.289Z,39.1
2023-02-17T07:14:50.902Z,39.2
2023-02-17T07:15:52.558Z,39.4
2023-02-17T07:16:54.376Z,39.4
2023-02-17T07:17:55.833Z,39.4
2023-02-17T07:18:57.278Z,39.5
2023-02-17T07:19:58.714Z,39.5
2023-02-17T07:21:00.138Z,39.5
2023-02-17T07:22:01.573Z,39.6
2023-02-17T07:23:03.005Z,39.7
2023-02-17T07:24:04.444Z,39.7
2023-02-17T07:25:05.877Z,39.6
2023-02-17T07:26:08.162Z,39.6
2023-02-17T07:27:11.150Z,39.7
2023-02-17T07:28:12.564Z,39.7
2023-02-17T07:29:13.967Z,39.6
2023-02-17T07:30:15.433Z,39.7
2023-02-17T07:31:17.549Z,39.5
2023-02-17T07:32:19.116Z,39.6
2023-02-17T07:33:20.542Z,39.8
2023-02-17T07:34:21.954Z,39.8
2023-02-17T07:35:23.356Z,39.7
2023-02-17T07:36:24.744Z,39.7
2023-02-17T07:37:26.176Z,39.8
2023-02-17T07:38:27.580Z,39.7
2023-02-17T07:39:28.989Z,39.6
2023-02-17T07:40:30.377Z,39.7
2023-02-17T07:41:31.827Z,39.6
2023-02-17T07:42:33.247Z,39.8
2023-02-17T07:43:34.686Z,39.7
2023-02-17T07:44:36.084Z,39.7
2023-02-17T07:45:37.571Z,39.7
2023-02-17T07:46:39.099Z,39.7
2023-02-17T07:47:40.513Z,39.8
2023-02-17T07:48:41.911Z,39.7
2023-02-17T07:49:43.351Z,39.6
2023-02-17T07:50:44.776Z,39.7
2023-02-17T07:51:46.328Z,39.8
2023-02-17T07:52:47.712Z,39.7
2023-02-17T07:53:49.129Z,39.7
2023-02-17T07:54:50.532Z,39.6
2023-02-17T07:55:51.921Z,39.7
2023-02-17T07:56:53.979Z,39.6
2023-02-17T07:57:55.385Z,39.6
2023-02-17T07:58:56.764Z,39.6
2023-02-17T07:59:58.180Z,39.6
2023-02-17T08:00:59.583Z,39.6
2023-02-17T08:02:01.074Z,39.5
2023-02-17T08:03:02.501Z,39.5
2023-02-17T08:04:04.130Z,39.5
2023-02-17T08:05:05.673Z,39.5
2023-02-17T08:06:07.906Z,39.4
2023-02-17T08:07:09.587Z,39.4
2023-02-17T08:08:10.990Z,39.4
2023-02-17T08:09:12.440Z,39.4
2023-02-17T08:10:13.848Z,39.4
2023-02-17T08:11:15.243Z,39.4
2023-02-17T08:12:16.695Z,39.4
2023-02-17T08:13:18.111Z,39.4
2023-02-17T08:14:19.507Z,39.4
